Time;durP1;ratioP1;P1;durP2;ratioP2;P2;SDS_P1;SDS_P2;PMS_P1;PMS_P2;Temp;Humidity;BMP_temperature;BMP_pressure;BME280_temperature;BME280_humidity;BME280_pressure;Samples;Min_cycle;Max_cycle;Signal;HPM_P1;HPM_P2
2022/08/09 00:00:38;;;;;;;0.00;0.00;;;;;;;14.66;96.22;101429.38;5014303;28;20211;-74
2022/08/09 00:03:04;;;;;;;0.00;0.00;;;;;;;14.64;96.38;101428.88;5014151;28;20195;-74
2022/08/09 00:05:29;;;;;;;0.30;0.30;;;;;;;14.62;96.58;101433.88;5014224;28;20200;-74
2022/08/09 00:07:54;;;;;;;0.00;0.00;;;;;;;14.50;96.96;101436.38;5013983;28;20262;-74
2022/08/09 00:10:20;;;;;;;0.00;0.00;;;;;;;14.45;97.73;101420.00;5013668;28;20263;-74
2022/08/09 00:12:45;;;;;;;0.00;0.00;;;;;;;14.41;98.25;101424.47;5014323;28;20539;-74
2022/08/09 00:15:11;;;;;;;0.00;0.00;;;;;;;14.38;98.61;101427.84;5014574;28;20305;-74
2022/08/09 00:17:36;;;;;;;0.00;0.00;;;;;;;14.35;99.29;101428.47;5013745;28;20613;-74
2022/08/09 00:20:02;;;;;;;0.33;0.33;;;;;;;14.43;99.71;101430.47;5013771;28;20224;-74
2022/08/09 00:22:28;;;;;;;0.00;0.00;;;;;;;14.42;99.17;101426.09;5013834;28;20177;-74
2022/08/09 00:24:54;;;;;;;0.00;0.00;;;;;;;14.47;98.92;101432.31;5013754;28;20184;-74
2022/08/09 00:27:19;;;;;;;0.00;0.00;;;;;;;14.52;98.35;101431.38;5013399;28;20291;-73
2022/08/09 00:29:45;;;;;;;0.10;0.10;;;;;;;14.44;98.11;101435.69;5013307;28;20259;-74
2022/08/09 00:32:10;;;;;;;0.20;0.20;;;;;;;14.42;98.18;101434.34;5012661;28;20181;-74
2022/08/09 00:34:35;;;;;;;0.20;0.20;;;;;;;14.35;98.39;101432.03;5013643;28;20173;-72
2022/08/09 00:37:01;;;;;;;0.00;0.00;;;;;;;14.29;99.03;101436.84;5013314;28;20168;-72
2022/08/09 00:39:26;;;;;;;0.00;0.00;;;;;;;14.36;99.44;101428.16;5013137;28;20242;-72
2022/08/09 00:41:51;;;;;;;0.20;0.20;;;;;;;14.28;99.25;101435.22;5013557;28;20204;-72
2022/08/09 00:44:17;;;;;;;0.00;0.00;;;;;;;14.19;99.54;101439.03;5013410;28;20587;-72
2022/08/09 00:46:42;;;;;;;0.00;0.00;;;;;;;14.20;100.00;101430.47;5013481;28;20191;-72
2022/08/09 00:49:09;;;;;;;0.00;0.00;;;;;;;14.26;100.00;101429.22;5012594;28;20188;-72
2022/08/09 00:51:35;;;;;;;0.00;0.00;;;;;;;14.28;100.00;101435.22;5012957;28;20255;-72
2022/08/09 00:54:01;;;;;;;0.23;0.17;;;;;;;14.29;100.00;101433.28;5013236;28;20263;-72
2022/08/09 00:56:29;;;;;;;0.00;0.00;;;;;;;14.37;99.83;101437.22;5013099;28;20263;-72
2022/08/09 00:58:54;;;;;;;0.00;0.00;;;;;;;14.37;99.39;101439.97;5012487;28;20378;-72
2022/08/09 01:01:22;;;;;;;0.17;0.17;;;;;;;14.26;99.58;101439.41;5013233;28;20181;-72
2022/08/09 01:04:03;;;;;;;0.00;0.00;;;;;;;14.18;99.99;101435.47;5013016;28;20284;-74
2022/08/09 01:06:56;;;;;;;0.00;0.00;;;;;;;14.14;100.00;101441.88;5013045;28;20207;-72
2022/08/09 01:09:46;;;;;;;0.43;0.40;;;;;;;14.06;100.00;101446.19;5012450;28;20562;-72
2022/08/09 01:12:36;;;;;;;0.30;0.30;;;;;;;14.01;100.00;101451.78;5012896;28;20633;-72
2022/08/09 01:15:05;;;;;;;0.43;0.43;;;;;;;13.93;100.00;101449.78;5012768;28;20629;-72
2022/08/09 01:17:39;;;;;;;0.00;0.00;;;;;;;13.86;100.00;101455.69;5012485;28;20184;-73
2022/08/09 01:20:13;;;;;;;0.00;0.00;;;;;;;13.83;100.00;101450.81;5012239;28;20286;-72
2022/08/09 01:22:53;;;;;;;0.33;0.33;;;;;;;13.74;100.00;101452.66;5012728;28;20272;-72
2022/08/09 01:25:42;;;;;;;0.00;0.00;;;;;;;13.65;100.00;101458.09;5012639;28;20165;-72
2022/08/09 01:28:09;;;;;;;0.00;0.00;;;;;;;13.65;100.00;101460.03;5011926;28;20192;-72
2022/08/09 01:30:37;;;;;;;0.00;0.00;;;;;;;13.67;100.00;101464.06;5012760;28;20239;-72
2022/08/09 01:33:07;;;;;;;0.00;0.00;;;;;;;13.70;100.00;101465.38;5012642;28;20179;-72
2022/08/09 01:35:57;;;;;;;0.07;0.07;;;;;;;13.67;100.00;101466.00;5012401;28;20186;-72
2022/08/09 01:38:26;;;;;;;0.10;0.10;;;;;;;13.71;100.00;101469.75;5011740;28;20165;-72
2022/08/09 01:41:12;;;;;;;0.00;0.00;;;;;;;13.73;100.00;101469.44;5012594;28;20204;-72
2022/08/09 01:43:42;;;;;;;0.00;0.00;;;;;;;13.66;100.00;101465.19;5012285;28;20183;-73
2022/08/09 01:46:10;;;;;;;0.00;0.00;;;;;;;13.65;100.00;101463.56;5012323;28;20176;-73
2022/08/09 01:48:35;;;;;;;0.10;0.10;;;;;;;13.65;100.00;101460.84;5011402;28;20184;-72
2022/08/09 01:51:02;;;;;;;0.00;0.00;;;;;;;13.64;100.00;101472.13;5012265;28;20193;-72
2022/08/09 01:53:28;;;;;;;0.00;0.00;;;;;;;13.64;100.00;101472.13;5012348;28;20185;-72
2022/08/09 01:55:55;;;;;;;0.00;0.00;;;;;;;13.59;100.00;101469.47;5012070;28;20179;-72
2022/08/09 01:58:21;;;;;;;0.00;0.00;;;;;;;13.57;100.00;101461.53;5011441;28;20255;-73
2022/08/09 02:00:48;;;;;;;0.10;0.10;;;;;;;13.57;100.00;101457.97;5011814;28;20298;-72
2022/08/09 02:03:15;;;;;;;0.00;0.00;;;;;;;13.55;100.00;101452.78;5011140;28;20180;-72
2022/08/09 02:05:43;;;;;;;0.00;0.00;;;;;;;13.53;100.00;101457.78;5011909;28;20203;-72
2022/08/09 02:08:12;;;;;;;0.00;0.00;;;;;;;13.49;100.00;101469.69;5011157;28;20176;-72
2022/08/09 02:10:40;;;;;;;0.00;0.00;;;;;;;13.42;100.00;101466.53;5011830;28;20523;-73
2022/08/09 02:13:08;;;;;;;0.00;0.00;;;;;;;13.34;100.00;101459.84;5011778;28;20180;-72
2022/08/09 02:15:38;;;;;;;0.37;0.37;;;;;;;13.35;100.00;101470.50;5011757;28;20188;-72
2022/08/09 02:18:05;;;;;;;0.00;0.00;;;;;;;13.38;100.00;101469.88;5011883;28;20164;-72
2022/08/09 02:20:33;;;;;;;0.00;0.00;;;;;;;13.33;100.00;101467.25;5011367;28;20208;-72
2022/08/09 02:23:14;;;;;;;0.00;0.00;;;;;;;13.38;100.00;101474.56;5011686;28;20195;-72
2022/08/09 02:25:41;;;;;;;0.00;0.00;;;;;;;13.42;100.00;101475.56;5011578;28;20538;-73
2022/08/09 02:28:17;;;;;;;0.00;0.00;;;;;;;13.39;100.00;101476.19;5011558;28;20207;-72
2022/08/09 02:30:50;;;;;;;0.00;0.00;;;;;;;13.32;100.00;101475.81;5011386;28;20238;-72
2022/08/09 02:33:21;;;;;;;0.27;0.27;;;;;;;13.26;100.00;101483.31;5011403;28;20674;-73
2022/08/09 02:35:50;;;;;;;0.90;0.90;;;;;;;13.24;100.00;101477.31;5011468;28;20323;-73
2022/08/09 02:38:27;;;;;;;0.00;0.00;;;;;;;13.28;100.00;101483.81;5010648;28;20264;-73
2022/08/09 02:41:05;;;;;;;0.00;0.00;;;;;;;13.26;100.00;101483.31;5011275;28;20203;-72
2022/08/09 02:43:33;;;;;;;0.00;0.00;;;;;;;13.20;100.00;101483.72;5011535;28;20251;-73
2022/08/09 02:46:00;;;;;;;0.00;0.00;;;;;;;13.13;100.00;101483.25;5011381;28;20182;-73
2022/08/09 02:48:28;;;;;;;0.00;0.00;;;;;;;13.07;100.00;101480.63;5010618;28;20621;-73
2022/08/09 02:50:57;;;;;;;0.00;0.00;;;;;;;13.03;100.00;101481.53;5011211;28;20211;-72
2022/08/09 02:53:26;;;;;;;0.00;0.00;;;;;;;13.04;100.00;101478.47;5011033;28;20263;-72
2022/08/09 02:55:55;;;;;;;0.00;0.00;;;;;;;13.10;100.00;101476.44;5011412;28;20172;-73
2022/08/09 02:58:24;;;;;;;0.10;0.10;;;;;;;13.17;100.00;101487.03;5010698;28;20176;-73
2022/08/09 03:00:51;;;;;;;0.00;0.00;;;;;;;13.09;100.00;101483.06;5010912;28;20287;-73
2022/08/09 03:03:18;;;;;;;0.00;0.00;;;;;;;13.06;100.00;101486.41;5010973;28;20189;-73
2022/08/09 03:05:45;;;;;;;0.00;0.00;;;;;;;13.06;100.00;101489.97;5011091;28;20173;-72
2022/08/09 03:08:12;;;;;;;0.00;0.00;;;;;;;12.97;100.00;101479.97;5010268;28;20275;-73
2022/08/09 03:10:40;;;;;;;0.00;0.00;;;;;;;13.04;100.00;101480.41;5011033;28;20279;-74
2022/08/09 03:13:06;;;;;;;0.03;0.03;;;;;;;13.04;100.00;101480.41;5010511;28;20551;-72
2022/08/09 03:15:32;;;;;;;0.10;0.10;;;;;;;13.01;100.00;101483.72;5010906;28;20184;-73
2022/08/09 03:17:59;;;;;;;0.47;0.47;;;;;;;13.03;100.00;101487.84;5010522;28;20250;-72
2022/08/09 03:20:26;;;;;;;0.10;0.10;;;;;;;12.94;100.00;101486.88;5010393;28;20597;-73
2022/08/09 03:22:53;;;;;;;0.00;0.00;;;;;;;12.87;100.00;101491.94;5010629;28;20172;-72
2022/08/09 03:25:18;;;;;;;0.10;0.10;;;;;;;12.87;100.00;101491.94;5010743;28;20196;-71
2022/08/09 03:27:49;;;;;;;0.00;0.00;;;;;;;12.81;100.00;101495.88;5010362;28;20185;-73
2022/08/09 03:30:15;;;;;;;0.73;0.47;;;;;;;12.78;100.00;101499.25;5010411;28;20172;-72
2022/08/09 03:32:41;;;;;;;0.00;0.00;;;;;;;12.75;100.00;101499.84;5010683;28;20714;-72
2022/08/09 03:35:10;;;;;;;0.20;0.20;;;;;;;12.70;100.00;101499.91;5010892;28;20189;-73
2022/08/09 03:37:36;;;;;;;0.00;0.00;;;;;;;12.72;100.00;101498.50;5010297;28;20184;-73
2022/08/09 03:40:01;;;;;;;0.00;0.00;;;;;;;12.74;100.00;101498.22;5010190;28;20227;-74
2022/08/09 03:42:27;;;;;;;0.00;0.00;;;;;;;12.77;100.00;101508.59;5010531;28;20681;-73
2022/08/09 03:44:52;;;;;;;0.00;0.00;;;;;;;12.72;100.00;101511.38;5010646;28;20211;-73
2022/08/09 03:47:17;;;;;;;0.23;0.23;;;;;;;12.63;100.00;101511.28;5010616;28;20208;-73
2022/08/09 03:49:44;;;;;;;0.10;0.10;;;;;;;12.60;100.00;101508.31;5010096;28;20198;-73
2022/08/09 03:52:10;;;;;;;0.00;0.00;;;;;;;12.60;100.00;101509.13;5010427;28;20202;-73
2022/08/09 03:54:38;;;;;;;0.10;0.10;;;;;;;12.58;100.00;101511.34;5010483;28;20617;-73
2022/08/09 03:57:09;;;;;;;0.00;0.00;;;;;;;12.61;100.00;101516.25;5010158;28;20180;-73
2022/08/09 03:59:35;;;;;;;0.10;0.10;;;;;;;12.66;100.00;101507.94;5010034;28;20657;-73
2022/08/09 04:02:02;;;;;;;0.00;0.00;;;;;;;12.70;100.00;101510.88;5010549;28;20183;-73
2022/08/09 04:04:28;;;;;;;1.10;1.10;;;;;;;12.70;100.00;101508.94;5009135;28;20187;-73
2022/08/09 04:06:54;;;;;;;0.03;0.03;;;;;;;12.66;100.00;101512.59;5009981;28;20272;-73
2022/08/09 04:09:20;;;;;;;0.17;0.17;;;;;;;12.61;100.00;101516.25;5010140;28;20276;-72
2022/08/09 04:12:07;;;;;;;0.00;0.00;;;;;;;12.64;100.00;101526.59;5010311;28;20592;-73
2022/08/09 04:14:33;;;;;;;0.00;0.00;;;;;;;12.67;100.00;101523.25;5010370;28;20227;-73
2022/08/09 04:16:58;;;;;;;0.73;0.73;;;;;;;12.64;100.00;101521.13;5009911;28;20209;-73
2022/08/09 04:19:24;;;;;;;0.00;0.00;;;;;;;12.65;100.00;101524.69;5009647;28;20686;-73
2022/08/09 04:21:49;;;;;;;0.00;0.00;;;;;;;12.72;100.00;101525.09;5010329;28;20263;-73
2022/08/09 04:24:14;;;;;;;0.30;0.30;;;;;;;12.76;100.00;101523.41;5011103;28;20177;-72
2022/08/09 04:26:39;;;;;;;0.27;0.27;;;;;;;12.80;100.00;101527.19;5017783;28;20663;-72
2022/08/09 04:29:05;;;;;;;0.00;0.00;;;;;;;12.81;100.00;101539.78;5015888;28;20199;-71
2022/08/09 04:31:30;;;;;;;0.30;0.30;;;;;;;12.88;100.00;101537.47;5014154;28;20256;-71
2022/08/09 04:33:57;;;;;;;0.00;0.00;;;;;;;12.94;100.00;101539.00;5013856;28;20210;-72
2022/08/09 04:36:24;;;;;;;0.57;0.57;;;;;;;12.99;100.00;101533.41;5013902;28;20651;-72
2022/08/09 04:38:50;;;;;;;0.00;0.00;;;;;;;13.01;100.00;101541.34;5013596;28;20663;-72
2022/08/09 04:41:15;;;;;;;0.00;0.00;;;;;;;13.07;100.00;101543.72;5013823;28;20204;-71
2022/08/09 04:43:41;;;;;;;0.30;0.30;;;;;;;13.07;100.00;101549.22;5013752;28;20183;-71
2022/08/09 04:46:06;;;;;;;0.00;0.00;;;;;;;13.14;100.00;101543.31;5013463;28;20236;-71
2022/08/09 04:48:31;;;;;;;0.00;0.00;;;;;;;13.19;100.00;101547.94;5012789;28;20235;-72
2022/08/09 04:50:56;;;;;;;0.40;0.40;;;;;;;13.21;100.00;101541.03;5013372;28;20189;-72
2022/08/09 04:53:22;;;;;;;0.20;0.20;;;;;;;13.23;100.00;101546.22;5013324;28;20199;-71
2022/08/09 04:55:47;;;;;;;0.30;0.30;;;;;;;13.22;100.00;101544.59;5013130;28;20184;-72
2022/08/09 04:58:12;;;;;;;0.00;0.00;;;;;;;13.26;100.00;101546.44;5012536;28;20187;-72
2022/08/09 05:00:38;;;;;;;1.97;1.90;;;;;;;13.34;100.00;101553.97;5013402;28;20204;-72
2022/08/09 05:03:04;;;;;;;0.00;0.00;;;;;;;13.44;100.00;101560.38;5013180;28;20212;-71
2022/08/09 05:05:30;;;;;;;0.00;0.00;;;;;;;13.48;100.00;101561.41;5012991;28;20563;-71
2022/08/09 05:07:56;;;;;;;0.00;0.00;;;;;;;13.60;100.00;101562.56;5012731;28;20250;-72
2022/08/09 05:10:22;;;;;;;0.00;0.00;;;;;;;13.69;100.00;101574.44;5012503;28;20173;-72
2022/08/09 05:12:48;;;;;;;0.00;0.00;;;;;;;13.75;100.00;101572.44;5010458;28;20189;-72
2022/08/09 05:15:13;;;;;;;0.00;0.00;;;;;;;13.86;100.00;101573.00;5012798;28;20543;-72
2022/08/09 05:17:39;;;;;;;0.00;0.00;;;;;;;13.96;100.00;101575.56;5012791;28;20238;-71
2022/08/09 05:20:05;;;;;;;0.00;0.00;;;;;;;14.03;100.00;101575.13;5012430;28;20215;-71
2022/08/09 05:22:30;;;;;;;0.00;0.00;;;;;;;14.11;100.00;101580.72;5012576;28;20238;-72
2022/08/09 05:24:56;;;;;;;0.00;0.00;;;;;;;14.20;100.00;101578.09;5012768;28;20585;-71
2022/08/09 05:27:21;;;;;;;0.37;0.37;;;;;;;14.29;100.00;101582.53;5011911;28;20676;-72
2022/08/09 05:29:47;;;;;;;0.00;0.00;;;;;;;14.39;100.00;101580.69;5012056;28;20437;-72
2022/08/09 05:32:12;;;;;;;0.27;0.27;;;;;;;14.48;100.00;101576.94;5012416;28;20557;-72
2022/08/09 05:34:37;;;;;;;0.00;0.00;;;;;;;14.56;100.00;101587.19;5012500;28;20169;-72
2022/08/09 05:37:05;;;;;;;0.00;0.00;;;;;;;14.62;100.00;101587.09;5011672;28;20183;-72
2022/08/09 05:39:30;;;;;;;0.00;0.00;;;;;;;14.67;100.00;101593.28;5011829;28;20291;-71
2022/08/09 05:41:56;;;;;;;0.00;0.00;;;;;;;14.73;100.00;101589.28;5012673;28;20255;-72
2022/08/09 05:44:22;;;;;;;0.00;0.00;;;;;;;14.82;100.00;101592.91;5012018;28;20204;-72
2022/08/09 05:46:47;;;;;;;0.00;0.00;;;;;;;14.87;100.00;101601.03;5012043;28;20208;-72
2022/08/09 05:49:12;;;;;;;0.20;0.20;;;;;;;14.93;100.00;101603.69;5011952;28;20178;-72
2022/08/09 05:51:38;;;;;;;0.00;0.00;;;;;;;14.96;100.00;101608.56;5012114;28;20235;-71
2022/08/09 05:54:03;;;;;;;0.00;0.00;;;;;;;15.02;100.00;101607.28;5012033;28;20242;-72
2022/08/09 05:56:28;;;;;;;0.00;0.00;;;;;;;15.06;100.00;101616.56;5011881;28;20596;-72
2022/08/09 05:58:56;;;;;;;0.00;0.00;;;;;;;15.14;100.00;101624.88;5011616;28;20590;-71
2022/08/09 06:01:24;;;;;;;0.00;0.00;;;;;;;15.22;100.00;101628.03;5011852;28;20208;-71
2022/08/09 06:03:49;;;;;;;0.00;0.00;;;;;;;15.21;97.22;101621.69;5011784;28;20179;-71
2022/08/09 06:06:15;;;;;;;0.00;0.00;;;;;;;15.24;95.89;101618.31;5012126;28;20177;-71
2022/08/09 06:08:40;;;;;;;1.27;0.83;;;;;;;15.36;94.87;101621.31;5011108;28;20276;-72
2022/08/09 06:11:07;;;;;;;0.00;0.00;;;;;;;15.48;94.57;101627.06;5011668;28;20279;-71
2022/08/09 06:13:32;;;;;;;0.00;0.00;;;;;;;15.54;94.74;101616.72;5011647;28;20176;-71
2022/08/09 06:15:58;;;;;;;0.00;0.00;;;;;;;15.66;95.94;101625.22;5009686;28;20208;-72
2022/08/09 06:18:23;;;;;;;0.00;0.00;;;;;;;15.81;96.05;101620.44;5004470;28;20243;-71
2022/08/09 06:20:49;;;;;;;0.00;0.00;;;;;;;15.77;94.87;101623.84;5010706;28;20216;-71
2022/08/09 06:23:14;;;;;;;0.00;0.00;;;;;;;15.80;94.48;101619.63;5010099;28;20538;-72
2022/08/09 06:25:40;;;;;;;0.00;0.00;;;;;;;15.95;94.54;101629.41;5011361;28;20711;-72
2022/08/09 06:28:06;;;;;;;0.00;0.00;;;;;;;16.04;93.34;101636.56;5010659;28;20215;-72
2022/08/09 06:30:32;;;;;;;0.00;0.00;;;;;;;16.11;90.00;101630.59;5011287;28;20534;-71
2022/08/09 06:32:57;;;;;;;0.00;0.00;;;;;;;16.25;90.86;101639.56;5011319;28;20180;-71
2022/08/09 06:35:23;;;;;;;0.27;0.27;;;;;;;16.27;88.88;101637.28;5010447;28;20267;-72
2022/08/09 06:37:48;;;;;;;0.00;0.00;;;;;;;16.30;87.61;101638.59;5004165;28;20188;-72
2022/08/09 06:40:13;;;;;;;0.23;0.23;;;;;;;16.44;88.32;101642.03;5010932;28;20684;-71
2022/08/09 06:42:39;;;;;;;0.00;0.00;;;;;;;16.50;87.52;101631.69;5011222;28;20251;-71
2022/08/09 06:45:05;;;;;;;0.00;0.00;;;;;;;16.49;86.92;101643.81;5011256;28;20582;-72
2022/08/09 06:47:30;;;;;;;0.00;0.00;;;;;;;16.62;86.46;101640.91;5007648;28;20192;-71
2022/08/09 06:49:55;;;;;;;0.00;0.00;;;;;;;16.70;84.56;101641.28;5010744;28;20177;-71
2022/08/09 06:52:21;;;;;;;0.00;0.00;;;;;;;16.73;84.73;101646.97;5010859;28;20648;-72
2022/08/09 06:54:46;;;;;;;0.00;0.00;;;;;;;16.90;85.38;101641.47;5010924;28;20185;-72
2022/08/09 06:57:12;;;;;;;0.00;0.00;;;;;;;17.02;84.30;101649.09;5010621;28;20543;-72
2022/08/09 06:59:38;;;;;;;0.10;0.00;;;;;;;17.24;83.62;101648.94;5010295;28;20588;-73
2022/08/09 07:02:03;;;;;;;0.00;0.00;;;;;;;17.28;83.45;101651.03;5010478;28;20231;-72
2022/08/09 07:04:29;;;;;;;0.00;0.00;;;;;;;17.37;82.79;101649.06;5010930;28;20177;-72
2022/08/09 07:06:54;;;;;;;0.00;0.00;;;;;;;17.46;82.67;101653.44;5010541;28;20186;-72
2022/08/09 07:09:20;;;;;;;0.00;0.00;;;;;;;17.49;81.48;101654.72;5010215;28;20172;-72
2022/08/09 07:11:46;;;;;;;0.20;0.20;;;;;;;17.71;80.93;101662.84;5009399;28;20452;-74
2022/08/09 07:14:16;;;;;;;0.10;0.10;;;;;;;17.75;80.77;101660.22;5010482;28;20301;-75
2022/08/09 07:16:42;;;;;;;0.00;0.00;;;;;;;17.80;81.04;101665.59;5010183;28;20529;-73
2022/08/09 07:19:09;;;;;;;0.47;0.47;;;;;;;17.85;79.14;101662.63;5010534;28;20180;-73
2022/08/09 07:21:34;;;;;;;0.00;0.00;;;;;;;17.90;78.76;101656.91;5016017;28;20180;-74
2022/08/09 07:24:00;;;;;;;0.20;0.20;;;;;;;18.14;78.35;101659.09;5016017;28;20684;-74
2022/08/09 07:26:25;;;;;;;0.40;0.40;;;;;;;18.09;78.19;101662.88;5009605;28;20877;-75
2022/08/09 07:28:51;;;;;;;0.50;0.50;;;;;;;18.10;77.70;101656.19;5000957;28;20256;-74
2022/08/09 07:31:16;;;;;;;0.10;0.10;;;;;;;18.20;76.34;101670.78;5011242;28;20544;-74
2022/08/09 07:33:43;;;;;;;0.00;0.00;;;;;;;18.34;77.15;101671.34;5010358;28;20180;-74
2022/08/09 07:36:09;;;;;;;0.30;0.30;;;;;;;18.35;76.38;101659.13;5008028;28;20207;-74
2022/08/09 07:38:34;;;;;;;0.43;0.37;;;;;;;18.57;76.08;101666.34;5005474;28;20188;-73
2022/08/09 07:41:00;;;;;;;0.00;0.00;;;;;;;18.62;75.56;101674.44;5009575;28;20306;-71
2022/08/09 07:43:25;;;;;;;0.00;0.00;;;;;;;18.70;74.48;101668.88;5003082;28;20695;-72
2022/08/09 07:45:50;;;;;;;0.10;0.10;;;;;;;18.78;74.75;101672.72;5010561;28;20433;-73
2022/08/09 07:48:15;;;;;;;0.00;0.00;;;;;;;18.82;74.09;101670.13;5009615;28;20260;-72
2022/08/09 07:50:42;;;;;;;0.10;0.10;;;;;;;18.91;75.10;101671.66;4999160;28;20547;-72
2022/08/09 07:53:08;;;;;;;0.00;0.00;;;;;;;19.00;73.60;101661.31;5001396;28;20263;-72
2022/08/09 07:55:34;;;;;;;0.20;0.20;;;;;;;19.09;73.07;101663.19;5010716;28;20601;-72
2022/08/09 07:57:59;;;;;;;0.00;0.00;;;;;;;19.15;73.03;101659.09;5010252;28;20582;-72
2022/08/09 08:00:25;;;;;;;0.30;0.30;;;;;;;19.20;73.29;101662.44;5013421;28;20204;-72
2022/08/09 08:02:50;;;;;;;3.60;0.57;;;;;;;19.22;73.47;101657.38;5014151;28;20260;-72
2022/08/09 08:05:16;;;;;;;0.37;0.37;;;;;;;19.39;72.29;101661.97;5012986;28;20207;-73
2022/08/09 08:07:41;;;;;;;0.60;0.60;;;;;;;19.38;71.73;101660.31;5014067;28;20597;-73
2022/08/09 08:10:08;;;;;;;0.10;0.10;;;;;;;19.53;71.52;101662.47;5013891;28;20233;-72
2022/08/09 08:12:33;;;;;;;0.60;0.60;;;;;;;19.58;70.44;101658.69;5014107;28;20246;-73
2022/08/09 08:14:59;;;;;;;0.47;0.47;;;;;;;19.67;69.41;101666.88;5011088;28;20646;-72
2022/08/09 08:17:24;;;;;;;0.10;0.10;;;;;;;19.75;69.47;101657.69;5013806;28;20195;-72
2022/08/09 08:19:49;;;;;;;0.00;0.00;;;;;;;19.90;69.43;101655.03;5013868;28;20212;-72
2022/08/09 08:22:15;;;;;;;0.00;0.00;;;;;;;20.00;70.20;101655.75;5013788;28;20268;-73
2022/08/09 08:24:40;;;;;;;0.00;0.00;;;;;;;20.13;69.55;101649.88;5013948;28;20176;-73
2022/08/09 08:27:06;;;;;;;1.23;1.13;;;;;;;20.04;67.97;101651.94;5013584;28;20192;-72
2022/08/09 08:29:31;;;;;;;0.00;0.00;;;;;;;20.15;68.75;101657.84;5013425;28;20180;-73
2022/08/09 08:31:57;;;;;;;0.47;0.47;;;;;;;20.31;66.61;101644.88;5013332;28;20669;-73
2022/08/09 08:34:22;;;;;;;0.00;0.00;;;;;;;20.42;67.58;101648.84;5012095;28;20640;-73
2022/08/09 08:36:47;;;;;;;0.17;0.17;;;;;;;20.44;66.74;101654.84;5013113;28;20535;-72
2022/08/09 08:39:13;;;;;;;0.43;0.37;;;;;;;20.63;66.88;101667.31;5012957;28;20818;-73
2022/08/09 08:41:39;;;;;;;0.00;0.00;;;;;;;20.71;66.77;101658.84;5012972;28;20255;-73
2022/08/09 08:44:07;;;;;;;1.17;1.07;;;;;;;20.71;65.31;101658.84;5013236;28;20188;-73
2022/08/09 08:46:38;;;;;;;0.03;0.03;;;;;;;20.64;65.40;101660.59;5013235;28;20264;-72
2022/08/09 08:49:04;;;;;;;0.80;0.80;;;;;;;20.85;65.20;101657.69;5013036;28;20174;-75
2022/08/09 08:51:30;;;;;;;0.10;0.00;;;;;;;20.97;63.12;101657.59;5013390;28;20181;-74
2022/08/09 08:53:56;;;;;;;0.00;0.00;;;;;;;21.02;62.98;101663.75;5013088;28;20212;-74
2022/08/09 08:56:22;;;;;;;0.33;0.30;;;;;;;20.94;61.79;101664.69;5013339;28;20202;-74
2022/08/09 08:58:47;;;;;;;0.20;0.20;;;;;;;21.11;61.70;101658.03;5012565;28;20174;-73
2022/08/09 09:01:16;;;;;;;0.00;0.00;;;;;;;21.13;61.99;101661.28;5013059;28;20446;-74
2022/08/09 09:03:43;;;;;;;0.20;0.20;;;;;;;21.20;61.08;101667.03;5013037;28;20181;-73
2022/08/09 09:06:09;;;;;;;1.30;0.60;;;;;;;21.24;61.17;101662.38;5010248;28;20172;-74
2022/08/09 09:08:38;;;;;;;0.30;0.30;;;;;;;21.28;61.35;101666.13;5012350;28;20177;-74
2022/08/09 09:11:05;;;;;;;0.10;0.10;;;;;;;21.36;61.18;101659.56;5012376;28;20303;-74
2022/08/09 09:13:35;;;;;;;0.10;0.10;;;;;;;21.51;60.99;101657.19;5012694;28;20231;-74
2022/08/09 09:16:01;;;;;;;0.00;0.00;;;;;;;21.55;60.44;101658.06;5012830;28;20621;-74
2022/08/09 09:18:26;;;;;;;0.17;0.17;;;;;;;21.67;60.46;101664.38;5012257;28;20186;-74
2022/08/09 09:20:52;;;;;;;0.07;0.00;;;;;;;21.73;60.10;101666.91;5012694;28;20697;-74
2022/08/09 09:23:38;;;;;;;0.10;0.10;;;;;;;21.68;59.06;101660.44;5011846;28;20531;-74
2022/08/09 09:26:03;;;;;;;0.43;0.43;;;;;;;21.95;57.69;101666.28;5009834;28;20245;-74
2022/08/09 09:28:33;;;;;;;0.00;0.00;;;;;;;21.95;58.28;101672.66;5007222;28;20198;-72
2022/08/09 09:31:00;;;;;;;0.00;0.00;;;;;;;22.08;58.72;101673.41;5012570;28;20622;-74
2022/08/09 09:33:34;;;;;;;0.00;0.00;;;;;;;22.19;57.91;101676.47;5012527;28;20653;-74
2022/08/09 09:36:02;;;;;;;0.67;0.67;;;;;;;22.18;56.32;101670.09;5011352;28;20168;-73
2022/08/09 09:39:01;;;;;;;0.20;0.20;;;;;;;22.32;57.27;101674.41;5009769;28;20664;-75
2022/08/09 09:41:29;;;;;;;0.20;0.20;;;;;;;22.34;56.50;101670.06;4989700;28;20224;-74
2022/08/09 09:43:56;;;;;;;0.00;0.00;;;;;;;22.17;55.93;101668.47;5012059;28;20211;-75
2022/08/09 09:46:36;;;;;;;0.30;0.30;;;;;;;22.37;55.81;101668.53;5012340;28;20632;-73
2022/08/09 09:49:08;;;;;;;0.10;0.10;;;;;;;22.42;55.07;101671.88;5011775;28;20660;-73
2022/08/09 09:51:36;;;;;;;0.00;0.00;;;;;;;22.64;55.59;101662.00;5012272;28;20168;-74
2022/08/09 09:54:11;;;;;;;0.77;0.77;;;;;;;22.88;54.41;101676.91;5012229;28;20180;-73
2022/08/09 09:56:40;;;;;;;1.17;1.13;;;;;;;22.79;54.11;101672.31;5011777;28;20180;-73
2022/08/09 09:59:07;;;;;;;0.47;0.47;;;;;;;22.55;53.29;101667.78;5007664;28;20248;-74
2022/08/09 10:01:32;;;;;;;0.80;0.70;;;;;;;22.54;53.29;101670.94;5010298;28;20243;-74
2022/08/09 10:03:58;;;;;;;0.10;0.10;;;;;;;22.79;53.54;101663.13;5011889;28;20266;-74
2022/08/09 10:06:26;;;;;;;0.20;0.20;;;;;;;22.85;53.64;101661.69;5012045;28;20579;-74
2022/08/09 10:08:58;;;;;;;0.20;0.20;;;;;;;22.93;53.98;101657.91;5008718;28;20191;-74
2022/08/09 10:11:29;;;;;;;0.00;0.00;;;;;;;23.05;53.87;101662.53;5011828;28;20227;-74
2022/08/09 10:13:55;;;;;;;0.00;0.00;;;;;;;23.38;52.79;101662.78;5012287;28;20581;-74
2022/08/09 10:16:32;;;;;;;0.27;0.27;;;;;;;23.08;51.90;101656.22;5011729;28;20176;-73
2022/08/09 10:19:00;;;;;;;0.33;0.33;;;;;;;23.18;52.18;101652.84;5011298;28;20255;-74
2022/08/09 10:21:27;;;;;;;0.00;0.00;;;;;;;23.25;52.51;101652.16;5011722;28;20200;-74
2022/08/09 10:24:00;;;;;;;1.13;1.10;;;;;;;23.51;51.89;101659.84;5011063;28;20267;-74
2022/08/09 10:26:26;;;;;;;0.30;0.30;;;;;;;23.35;51.81;101655.16;5011752;28;20192;-74
2022/08/09 10:28:53;;;;;;;0.20;0.20;;;;;;;23.35;51.29;101646.81;5011084;28;20168;-74
2022/08/09 10:31:19;;;;;;;0.07;0.07;;;;;;;23.43;51.15;101651.34;5011975;28;20184;-74
2022/08/09 10:33:45;;;;;;;0.00;0.00;;;;;;;23.47;50.60;101653.41;5011422;28;20188;-74
2022/08/09 10:36:12;;;;;;;0.20;0.20;;;;;;;23.44;51.46;101644.59;5011686;28;20173;-75
2022/08/09 10:38:41;;;;;;;0.10;0.10;;;;;;;23.31;50.88;101648.72;5010845;28;20537;-73
2022/08/09 10:41:07;;;;;;;0.00;0.00;;;;;;;23.22;50.78;101647.31;5011224;28;20212;-74
2022/08/09 10:43:35;;;;;;;0.13;0.13;;;;;;;23.30;49.91;101641.53;5011314;28;20299;-74
2022/08/09 10:46:15;;;;;;;0.00;0.00;;;;;;;23.54;50.62;101643.16;5009929;28;20542;-74
2022/08/09 10:48:46;;;;;;;0.23;0.23;;;;;;;23.72;50.46;101635.13;5010965;28;20236;-73
2022/08/09 10:51:24;;;;;;;0.30;0.30;;;;;;;23.73;49.57;101634.78;5004408;28;20199;-73
2022/08/09 10:54:01;;;;;;;0.30;0.30;;;;;;;23.73;49.13;101637.56;5011182;28;20168;-73
2022/08/09 10:56:32;;;;;;;0.37;0.37;;;;;;;23.57;49.69;101636.03;5011136;28;20263;-73
2022/08/09 10:58:58;;;;;;;0.00;0.00;;;;;;;23.70;49.54;101627.13;5009455;28;20294;-72
2022/08/09 11:01:30;;;;;;;0.10;0.10;;;;;;;23.98;49.67;101628.78;5010253;28;20235;-73
2022/08/09 11:04:09;;;;;;;0.30;0.30;;;;;;;24.17;48.29;101627.91;5010202;28;20653;-74
2022/08/09 11:06:40;;;;;;;0.70;0.70;;;;;;;24.37;48.89;101626.66;5011144;28;20190;-74
2022/08/09 11:09:06;;;;;;;4.40;0.20;;;;;;;24.13;48.20;101643.78;5010934;28;20560;-73
2022/08/09 11:11:54;;;;;;;0.00;0.00;;;;;;;24.03;49.42;101642.47;5012160;28;20215;-74
2022/08/09 11:14:34;;;;;;;0.00;0.00;;;;;;;24.35;49.99;101636.59;5021529;28;20190;-74
2022/08/09 11:17:25;;;;;;;0.00;0.00;;;;;;;24.66;48.87;101635.44;5011799;28;20697;-74
2022/08/09 11:19:57;;;;;;;5.00;0.83;;;;;;;24.47;48.15;101639.19;5010822;28;20208;-73
2022/08/09 11:22:44;;;;;;;1.00;0.83;;;;;;;24.08;47.52;101632.94;5011082;28;20179;-74
2022/08/09 11:25:36;;;;;;;0.00;0.00;;;;;;;24.43;48.22;101635.50;5011253;28;20204;-72